createdAt,value
2023-02-15T00:00:35.165Z,102753.75
2023-02-15T00:03:25.907Z,102755.53
2023-02-15T00:05:55.339Z,102759.03
2023-02-15T00:08:24.910Z,102749.34
2023-02-15T00:10:54.019Z,102751.06
2023-02-15T00:13:23.222Z,102754.63
2023-02-15T00:15:52.523Z,102752.00
2023-02-15T00:18:24.813Z,102752.91
2023-02-15T00:20:54.241Z,102743.22
2023-02-15T00:23:23.274Z,102737.03
2023-02-15T00:25:52.810Z,102749.34
2023-02-15T00:28:22.869Z,102738.78
2023-02-15T00:30:52.330Z,102736.13
2023-02-15T00:33:21.674Z,102737.03
2023-02-15T00:35:59.606Z,102732.63
2023-02-15T00:38:29.923Z,102729.97
2023-02-15T00:41:00.997Z,102732.63
2023-02-15T00:43:31.611Z,102723.78
2023-02-15T00:46:01.903Z,102726.44
2023-02-15T00:48:31.201Z,102723.78
2023-02-15T00:51:03.421Z,102721.16
2023-02-15T00:53:33.092Z,102715.84
2023-02-15T00:56:03.406Z,102717.59
2023-02-15T00:58:33.205Z,102711.38
2023-02-15T01:01:07.476Z,102706.09
2023-02-15T01:03:37.130Z,102710.53
2023-02-15T01:06:08.007Z,102706.97
2023-02-15T01:08:37.620Z,102705.19
2023-02-15T01:11:08.575Z,102702.53
2023-02-15T01:13:38.221Z,102703.44
2023-02-15T01:16:09.573Z,102709.59
2023-02-15T01:18:39.201Z,102703.41
2023-02-15T01:21:14.792Z,102690.09
2023-02-15T01:23:46.855Z,102686.63
2023-02-15T01:26:17.435Z,102686.59
2023-02-15T01:28:47.378Z,102687.44
2023-02-15T01:31:18.682Z,102679.50
2023-02-15T01:33:48.670Z,102673.28
2023-02-15T01:36:19.723Z,102681.22
2023-02-15T01:38:49.209Z,102674.13
2023-02-15T01:41:28.192Z,102680.31
2023-02-15T01:43:59.801Z,102668.81
2023-02-15T01:46:35.390Z,102676.75
2023-02-15T01:49:10.135Z,102674.09
2023-02-15T01:51:43.860Z,102673.13
2023-02-15T01:54:21.001Z,102674.00
2023-02-15T01:56:52.797Z,102678.41
2023-02-15T01:59:25.624Z,102670.38
2023-02-15T02:02:00.894Z,102673.91
2023-02-15T02:04:36.033Z,102673.03
2023-02-15T02:07:08.603Z,102673.91
2023-02-15T02:09:39.092Z,102671.25
2023-02-15T02:12:09.365Z,102673.91
2023-02-15T02:14:39.718Z,102669.53
2023-02-15T02:17:16.440Z,102667.72
2023-02-15T02:20:24.459Z,102664.16
2023-02-15T02:23:21.019Z,102658.88
2023-02-15T02:26:29.334Z,102652.69
2023-02-15T02:29:34.258Z,102650.00
2023-02-15T02:32:28.928Z,102648.22
2023-02-15T02:35:03.649Z,102636.78
2023-02-15T02:37:39.720Z,102642.94
2023-02-15T02:40:18.240Z,102642.94
2023-02-15T02:42:56.571Z,102648.22
2023-02-15T02:45:30.623Z,102638.53
2023-02-15T02:48:05.387Z,102635.03
2023-02-15T02:50:36.248Z,102635.88
2023-02-15T02:53:05.625Z,102631.50
2023-02-15T02:55:41.632Z,102635.03
2023-02-15T02:58:16.671Z,102634.13
2023-02-15T03:00:50.527Z,102634.97
2023-02-15T03:03:27.703Z,102637.59
2023-02-15T03:06:02.581Z,102634.94
2023-02-15T03:08:40.322Z,102635.03
2023-02-15T03:11:11.118Z,102631.50
2023-02-15T03:13:41.684Z,102629.66
2023-02-15T03:16:29.665Z,102625.22
2023-02-15T03:19:02.570Z,102621.66
2023-02-15T03:21:41.113Z,102622.53
2023-02-15T03:24:16.304Z,102628.72
2023-02-15T03:26:50.394Z,102619.88
2023-02-15T03:29:22.456Z,102617.19
2023-02-15T03:32:01.761Z,102611.06
2023-02-15T03:34:31.622Z,102618.09
2023-02-15T03:37:08.135Z,102611.91
2023-02-15T03:39:42.995Z,102612.75
2023-02-15T03:42:18.683Z,102618.97
2023-02-15T03:44:53.676Z,102620.75
2023-02-15T03:47:27.463Z,102606.59
2023-02-15T03:50:00.272Z,102607.47
2023-02-15T03:52:33.151Z,102609.25
2023-02-15T03:55:02.325Z,102605.75
2023-02-15T03:57:49.908Z,102608.34
2023-02-15T04:00:39.791Z,102601.31
2023-02-15T04:03:23.249Z,102605.75
2023-02-15T04:05:52.429Z,102602.19
2023-02-15T04:08:43.342Z,102602.22
2023-02-15T04:11:11.888Z,102605.75
2023-02-15T04:13:41.726Z,102598.66
2023-02-15T04:16:10.251Z,102588.06
2023-02-15T04:19:00.576Z,102588.06
2023-02-15T04:21:49.068Z,102588.06
2023-02-15T04:24:37.986Z,102591.59
2023-02-15T04:27:07.706Z,102590.72
2023-02-15T04:29:37.192Z,102593.38
2023-02-15T04:32:07.749Z,102591.59
2023-02-15T04:34:37.283Z,102599.56
2023-02-15T04:37:06.450Z,102592.53
2023-02-15T04:39:37.292Z,102581.94
2023-02-15T04:42:06.581Z,102581.03
2023-02-15T04:44:35.915Z,102579.28
2023-02-15T04:47:05.096Z,102571.34
2023-02-15T04:49:34.451Z,102571.34
2023-02-15T04:52:03.607Z,102573.13
2023-02-15T04:54:33.004Z,102572.28
2023-02-15T04:57:03.546Z,102574.00
2023-02-15T04:59:32.988Z,102574.00
2023-02-15T05:02:02.086Z,102575.75
2023-02-15T05:04:31.743Z,102565.19
2023-02-15T05:07:01.006Z,102566.06
2023-02-15T05:09:30.450Z,102562.50
2023-02-15T05:11:59.560Z,102566.91
2023-02-15T05:14:30.431Z,102566.91
2023-02-15T05:17:02.020Z,102565.16
2023-02-15T05:19:31.449Z,102561.63
2023-02-15T05:22:00.479Z,102566.06
2023-02-15T05:24:47.448Z,102561.63
2023-02-15T05:27:34.157Z,102566.06
2023-02-15T05:30:06.910Z,102560.78
2023-02-15T05:32:36.232Z,102567.81
2023-02-15T05:35:06.128Z,102559.88
2023-02-15T05:37:35.410Z,102549.28
2023-02-15T05:40:04.816Z,102542.25
2023-02-15T05:42:34.039Z,102559.88
2023-02-15T05:45:04.979Z,102553.78
2023-02-15T05:47:35.508Z,102552.00
2023-02-15T05:50:06.804Z,102553.78
2023-02-15T05:52:36.123Z,102549.34
2023-02-15T05:55:05.898Z,102554.66
2023-02-15T05:57:34.999Z,102543.16
2023-02-15T06:00:07.274Z,102539.63
2023-02-15T06:02:43.667Z,102542.34
2023-02-15T06:05:12.973Z,102537.00
2023-02-15T06:07:45.137Z,102548.56
2023-02-15T06:10:14.942Z,102534.34
2023-02-15T06:12:44.005Z,102534.34
2023-02-15T06:15:15.161Z,102541.44
2023-02-15T06:17:44.562Z,102541.44
2023-02-15T06:20:14.829Z,102529.13
2023-02-15T06:22:44.079Z,102530.84
2023-02-15T06:25:13.655Z,102536.16
2023-02-15T06:27:44.372Z,102537.91
2023-02-15T06:30:16.874Z,102531.69
2023-02-15T06:32:46.306Z,102543.19
2023-02-15T06:35:15.714Z,102541.38
2023-02-15T06:37:47.084Z,102533.41
2023-02-15T06:40:17.187Z,102544.00
2023-02-15T06:42:46.801Z,102541.38
2023-02-15T06:45:17.740Z,102543.13
2023-02-15T06:47:47.006Z,102541.34
2023-02-15T06:50:16.534Z,102534.31
2023-02-15T06:52:45.604Z,102531.69
2023-02-15T06:55:16.715Z,102526.41
2023-02-15T06:57:45.911Z,102527.25
2023-02-15T07:00:18.718Z,102520.28
2023-02-15T07:02:48.168Z,102520.28
2023-02-15T07:05:17.732Z,102514.97
2023-02-15T07:07:46.873Z,102520.25
2023-02-15T07:10:16.740Z,102520.22
2023-02-15T07:12:46.760Z,102520.28
2023-02-15T07:15:21.730Z,102512.38
2023-02-15T07:17:51.741Z,102514.09
2023-02-15T07:20:23.225Z,102520.28
2023-02-15T07:22:52.918Z,102508.81
2023-02-15T07:25:22.022Z,102512.34
2023-02-15T07:27:57.389Z,102505.31
2023-02-15T07:30:28.459Z,102511.50
2023-02-15T07:33:15.366Z,102510.69
2023-02-15T07:35:50.147Z,102498.38
2023-02-15T07:38:19.614Z,102508.09
2023-02-15T07:40:49.589Z,102505.47
2023-02-15T07:43:18.935Z,102509.09
2023-02-15T07:45:49.619Z,102503.81
2023-02-15T07:48:19.107Z,102505.56
2023-02-15T07:50:48.525Z,102503.84
2023-02-15T07:53:17.567Z,102498.53
2023-02-15T07:55:47.096Z,102493.31
2023-02-15T07:58:16.190Z,102493.38
2023-02-15T08:01:02.789Z,102495.19
2023-02-15T08:03:33.360Z,102494.38
2023-02-15T08:06:03.152Z,102479.34
2023-02-15T08:08:32.996Z,102469.69
2023-02-15T08:11:21.762Z,102473.28
2023-02-15T08:13:57.159Z,102467.97
2023-02-15T08:16:28.500Z,102470.63
2023-02-15T08:19:00.179Z,102464.47
2023-02-15T08:21:31.523Z,102459.19
2023-02-15T08:24:01.500Z,102466.28
2023-02-15T08:26:32.000Z,102464.56
2023-02-15T08:29:01.775Z,102454.03
2023-02-15T08:31:31.909Z,102459.34
2023-02-15T08:34:02.362Z,102461.16
2023-02-15T08:36:33.871Z,102455.03
2023-02-15T08:39:05.591Z,102449.81
2023-02-15T08:41:37.106Z,102456.94
2023-02-15T08:44:08.512Z,102448.16
2023-02-15T08:46:40.103Z,102449.06
2023-02-15T08:49:11.812Z,102452.59
2023-02-15T08:51:41.894Z,102446.41
2023-02-15T08:54:14.076Z,102439.44
2023-02-15T08:56:46.087Z,102431.53
2023-02-15T08:59:17.387Z,102429.78
2023-02-15T09:01:48.456Z,102435.09
2023-02-15T09:04:19.506Z,102422.72
2023-02-15T09:06:50.872Z,102424.47
2023-02-15T09:09:20.706Z,102418.34
2023-02-15T09:11:57.918Z,102418.41
2023-02-15T09:14:29.603Z,102422.00
2023-02-15T09:16:59.489Z,102421.09
2023-02-15T09:19:30.166Z,102418.41
2023-02-15T09:21:59.931Z,102419.25
2023-02-15T09:24:28.998Z,102418.44
2023-02-15T09:26:58.402Z,102414.06
2023-02-15T09:29:27.452Z,102411.41
2023-02-15T09:31:58.488Z,102406.00
2023-02-15T09:34:29.310Z,102413.03
2023-02-15T09:36:58.739Z,102401.53
2023-02-15T09:39:29.046Z,102405.16
2023-02-15T09:42:18.572Z,102410.50
2023-02-15T09:45:24.534Z,102411.41
2023-02-15T09:48:22.338Z,102403.41
2023-02-15T09:51:03.366Z,102409.53
2023-02-15T09:54:02.051Z,102407.84
2023-02-15T09:56:38.486Z,102402.53
2023-02-15T09:59:19.258Z,102401.69
2023-02-15T10:01:56.939Z,102393.69
2023-02-15T10:04:46.827Z,102396.44
2023-02-15T10:07:31.079Z,102384.91
2023-02-15T10:10:16.128Z,102382.28
2023-02-15T10:13:10.745Z,102376.97
2023-02-15T10:16:09.241Z,102373.50
2023-02-15T10:19:02.107Z,102372.59
2023-02-15T10:21:46.291Z,102370.78
2023-02-15T10:24:48.751Z,102372.63
2023-02-15T10:27:23.289Z,102375.31
2023-02-15T10:30:05.873Z,102364.72
2023-02-15T10:32:44.394Z,102367.47
2023-02-15T10:35:22.292Z,102368.38
2023-02-15T10:38:08.273Z,102373.66
2023-02-15T10:40:48.834Z,102367.53
2023-02-15T10:43:34.247Z,102356.94
2023-02-15T10:46:14.407Z,102355.19
2023-02-15T10:49:20.371Z,102349.91
2023-02-15T10:52:01.810Z,102350.88
2023-02-15T10:54:38.639Z,102345.59
2023-02-15T10:57:19.239Z,102335.81
2023-02-15T11:00:05.328Z,102341.16
2023-02-15T11:02:59.192Z,102334.09
2023-02-15T11:05:40.070Z,102331.44
2023-02-15T11:08:12.019Z,102330.59
2023-02-15T11:10:45.738Z,102323.50
2023-02-15T11:13:19.192Z,102323.50
2023-02-15T11:15:55.529Z,102307.63
2023-02-15T11:18:31.281Z,102308.50
2023-02-15T11:21:04.815Z,102315.63
2023-02-15T11:23:37.460Z,102311.16
2023-02-15T11:26:14.359Z,102311.22
2023-02-15T11:28:51.324Z,102311.25
2023-02-15T11:31:24.198Z,102305.09
2023-02-15T11:33:59.087Z,102300.69
2023-02-15T11:36:33.976Z,102302.47
2023-02-15T11:39:07.155Z,102291.88
2023-02-15T11:41:42.831Z,102291.88
2023-02-15T11:44:20.127Z,102289.22
2023-02-15T11:46:49.751Z,102287.50
2023-02-15T11:49:27.455Z,102287.50
2023-02-15T11:51:59.232Z,102288.38
2023-02-15T11:54:31.328Z,102287.50
2023-02-15T11:57:14.650Z,102279.53
2023-02-15T11:59:49.283Z,102276.88
2023-02-15T12:02:21.701Z,102275.13
2023-02-15T12:04:54.682Z,102277.78
2023-02-15T12:07:28.656Z,102268.03
2023-02-15T12:10:08.086Z,102262.75
2023-02-15T12:12:39.195Z,102261.88
2023-02-15T12:15:12.875Z,102265.44
2023-02-15T12:17:51.282Z,102255.69
2023-02-15T12:20:31.496Z,102246.84
2023-02-15T12:23:04.679Z,102250.38
2023-02-15T12:25:39.547Z,102256.56
2023-02-15T12:28:29.199Z,102245.06
2023-02-15T12:31:01.160Z,102245.06
2023-02-15T12:33:35.567Z,102248.59
2023-02-15T12:36:12.780Z,102245.06
2023-02-15T12:38:42.579Z,102246.84
2023-02-15T12:41:26.534Z,102241.53
2023-02-15T12:44:14.372Z,102237.97
2023-02-15T12:46:58.133Z,102238.88
2023-02-15T12:49:28.257Z,102232.69
2023-02-15T12:51:58.991Z,102234.44
2023-02-15T12:54:39.728Z,102239.75
2023-02-15T12:57:26.317Z,102238.00
2023-02-15T12:59:58.374Z,102231.78
2023-02-15T13:02:33.513Z,102234.44
2023-02-15T13:05:17.464Z,102224.69
2023-02-15T13:07:51.306Z,102226.47
2023-02-15T13:10:32.403Z,102211.41
2023-02-15T13:13:03.887Z,102206.06
2023-02-15T13:15:39.368Z,102208.75
2023-02-15T13:18:16.512Z,102203.41
2023-02-15T13:20:48.710Z,102210.50
2023-02-15T13:23:29.334Z,102199.88
2023-02-15T13:26:03.190Z,102198.97
2023-02-15T13:28:41.987Z,102194.50
2023-02-15T13:31:17.627Z,102198.97
2023-02-15T13:33:52.345Z,102194.50
2023-02-15T13:36:31.354Z,102191.84
2023-02-15T13:39:22.470Z,102190.03
2023-02-15T13:42:00.530Z,102195.34
2023-02-15T13:44:53.065Z,102196.25
2023-02-15T13:47:28.778Z,102193.59
2023-02-15T13:50:17.870Z,102187.34
2023-02-15T13:52:57.097Z,102181.16
2023-02-15T13:55:37.189Z,102172.28
2023-02-15T13:58:45.201Z,102170.50
2023-02-15T14:01:22.499Z,102165.22
2023-02-15T14:04:37.193Z,102159.84
2023-02-15T14:07:33.433Z,102161.63
2023-02-15T14:10:25.153Z,102158.09
2023-02-15T14:13:26.477Z,102156.34
2023-02-15T14:16:01.232Z,102148.34
2023-02-15T14:18:38.261Z,102156.34
2023-02-15T14:21:12.833Z,102160.75
2023-02-15T14:23:59.280Z,102151.91
2023-02-15T14:26:38.616Z,102136.84
2023-02-15T14:29:21.227Z,102142.19
2023-02-15T14:31:54.948Z,102145.72
2023-02-15T14:34:30.242Z,102144.84
2023-02-15T14:37:00.457Z,102134.25
2023-02-15T14:39:56.443Z,102138.69
2023-02-15T14:42:33.603Z,102131.56
2023-02-15T14:45:07.800Z,102128.03
2023-02-15T14:47:42.933Z,102129.84
2023-02-15T14:50:40.632Z,102122.75
2023-02-15T14:53:46.771Z,102116.56
2023-02-15T14:56:24.629Z,102122.75
2023-02-15T14:59:17.326Z,102110.38
2023-02-15T15:01:59.492Z,102114.81
2023-02-15T15:04:34.687Z,102110.41
2023-02-15T15:07:11.433Z,102113.94
2023-02-15T15:09:42.710Z,102124.59
2023-02-15T15:12:41.082Z,102116.66
2023-02-15T15:15:17.077Z,102112.22
2023-02-15T15:18:02.535Z,102108.69
2023-02-15T15:20:46.617Z,102110.44
2023-02-15T15:23:52.284Z,102108.69
2023-02-15T15:26:37.836Z,102102.50
2023-02-15T15:29:09.555Z,102103.41
2023-02-15T15:31:48.226Z,102092.75
2023-02-15T15:34:38.141Z,102097.19
2023-02-15T15:37:42.698Z,102091.88
2023-02-15T15:40:57.420Z,102092.78
2023-02-15T15:44:03.530Z,102098.97
2023-02-15T15:46:59.436Z,102098.06
2023-02-15T15:49:33.278Z,102090.09
2023-02-15T15:52:04.519Z,102096.28
2023-02-15T15:54:34.175Z,102088.28
2023-02-15T15:57:07.344Z,102086.50
2023-02-15T15:59:37.510Z,102089.16
2023-02-15T16:02:09.680Z,102079.44
2023-02-15T16:04:39.410Z,102082.97
2023-02-15T16:07:28.375Z,102080.28
2023-02-15T16:10:00.076Z,102080.28
2023-02-15T16:12:33.073Z,102068.78
2023-02-15T16:15:12.626Z,102067.91
2023-02-15T16:17:47.432Z,102065.25
2023-02-15T16:20:20.592Z,102056.38
2023-02-15T16:22:53.829Z,102064.31
2023-02-15T16:25:43.079Z,102059.88
2023-02-15T16:28:19.475Z,102054.59
2023-02-15T16:30:57.339Z,102051.03
2023-02-15T16:33:39.024Z,102058.06
2023-02-15T16:36:12.703Z,102052.78
2023-02-15T16:39:10.345Z,102052.75
2023-02-15T16:41:40.292Z,102044.81
2023-02-15T16:44:14.142Z,102046.53
2023-02-15T16:46:47.542Z,102044.75
2023-02-15T16:49:22.344Z,102038.53
2023-02-15T16:51:59.335Z,102039.41
2023-02-15T16:54:30.925Z,102038.53
2023-02-15T16:57:00.877Z,102028.75
2023-02-15T16:59:36.371Z,102035.78
2023-02-15T17:02:31.988Z,102028.69
2023-02-15T17:05:18.608Z,102020.72
2023-02-15T17:08:07.635Z,102023.31
2023-02-15T17:10:38.410Z,102012.66
2023-02-15T17:13:23.838Z,102020.56
2023-02-15T17:16:34.277Z,102017.00
2023-02-15T17:19:10.145Z,102016.13
2023-02-15T17:21:47.271Z,102018.72
2023-02-15T17:24:22.619Z,102019.59
2023-02-15T17:27:00.776Z,102030.13
2023-02-15T17:29:36.405Z,102016.91
2023-02-15T17:32:07.126Z,102021.25
2023-02-15T17:34:53.505Z,102023.00
2023-02-15T17:37:30.875Z,102025.66
2023-02-15T17:40:03.032Z,102019.47
2023-02-15T17:42:33.285Z,102016.81
2023-02-15T17:45:08.006Z,102026.50
2023-02-15T17:47:42.159Z,102014.19
2023-02-15T17:50:22.263Z,102013.28
2023-02-15T17:52:57.666Z,102007.09
2023-02-15T17:55:43.713Z,101996.47
2023-02-15T17:58:14.767Z,101990.28
2023-02-15T18:01:06.664Z,101987.69
2023-02-15T18:04:01.194Z,101995.59
2023-02-15T18:06:48.912Z,101990.28
2023-02-15T18:09:38.516Z,101991.13
2023-02-15T18:12:24.300Z,101993.78
2023-02-15T18:14:58.296Z,101995.53
2023-02-15T18:17:34.067Z,101987.59
2023-02-15T18:20:07.858Z,101985.84
2023-02-15T18:22:39.809Z,101983.19
2023-02-15T18:25:15.147Z,101979.66
2023-02-15T18:27:47.504Z,101981.41
2023-02-15T18:30:19.314Z,101974.34
2023-02-15T18:32:55.011Z,101981.41
2023-02-15T18:35:27.743Z,101984.91
2023-02-15T18:37:59.903Z,101979.63
2023-02-15T18:40:31.482Z,101977.84
2023-02-15T18:43:03.562Z,101974.31
2023-02-15T18:45:33.419Z,101967.25
2023-02-15T18:48:03.320Z,101967.25
2023-02-15T18:50:36.057Z,101976.09
2023-02-15T18:53:08.222Z,101980.47
2023-02-15T18:55:40.344Z,101974.31
2023-02-15T18:58:17.611Z,101969.06
2023-02-15T19:00:48.882Z,101961.13
2023-02-15T19:03:19.228Z,101954.97
2023-02-15T19:05:49.191Z,101952.31
2023-02-15T19:08:24.753Z,101963.78
2023-02-15T19:10:55.578Z,101969.09
2023-02-15T19:13:25.269Z,101962.00
2023-02-15T19:15:54.502Z,101963.72
2023-02-15T19:18:28.585Z,101970.75
2023-02-15T19:20:57.899Z,101966.34
2023-02-15T19:23:27.781Z,101962.00
2023-02-15T19:25:58.559Z,101952.31
2023-02-15T19:28:34.163Z,101957.56
2023-02-15T19:31:03.668Z,101956.69
2023-02-15T19:33:33.359Z,101950.53
2023-02-15T19:36:02.772Z,101937.34
2023-02-15T19:38:41.041Z,101931.97
2023-02-15T19:41:22.097Z,101926.69
2023-02-15T19:43:56.118Z,101924.94
2023-02-15T19:46:26.802Z,101924.09
2023-02-15T19:48:56.800Z,101928.53
2023-02-15T19:51:26.780Z,101924.97
2023-02-15T19:53:59.754Z,101930.28
2023-02-15T19:56:32.205Z,101923.22
2023-02-15T19:59:02.713Z,101924.97
2023-02-15T20:01:33.211Z,101924.94
2023-02-15T20:04:09.883Z,101919.63
2023-02-15T20:06:40.463Z,101922.22
2023-02-15T20:09:21.215Z,101908.16
2023-02-15T20:11:52.475Z,101900.22
2023-02-15T20:14:24.579Z,101905.53
2023-02-15T20:16:56.053Z,101900.25
2023-02-15T20:19:25.732Z,101905.50
2023-02-15T20:21:55.734Z,101895.75
2023-02-15T20:24:30.167Z,101899.31
2023-02-15T20:27:01.878Z,101901.94
2023-02-15T20:29:34.058Z,101900.19
2023-02-15T20:32:03.810Z,101905.50
2023-02-15T20:34:33.272Z,101903.72
2023-02-15T20:37:02.521Z,101894.03
2023-02-15T20:39:35.127Z,101902.00
2023-02-15T20:42:06.318Z,101891.41
2023-02-15T20:44:36.076Z,101890.53
2023-02-15T20:47:08.617Z,101884.34
2023-02-15T20:49:38.679Z,101886.09
2023-02-15T20:52:22.171Z,101872.91
2023-02-15T20:54:52.016Z,101894.06
2023-02-15T20:57:23.016Z,101887.00
2023-02-15T20:59:52.475Z,101882.56
2023-02-15T21:02:24.010Z,101878.16
2023-02-15T21:04:55.474Z,101881.72
2023-02-15T21:07:26.304Z,101872.03
2023-02-15T21:09:55.861Z,101872.94
2023-02-15T21:12:27.465Z,101872.09
2023-02-15T21:14:56.974Z,101873.88
2023-02-15T21:17:26.758Z,101872.09
2023-02-15T21:19:56.523Z,101878.22
2023-02-15T21:22:25.601Z,101872.94
2023-02-15T21:24:55.812Z,101871.22
2023-02-15T21:27:28.471Z,101871.22
2023-02-15T21:29:57.960Z,101869.44
2023-02-15T21:32:27.081Z,101870.34
2023-02-15T21:34:56.825Z,101868.53
2023-02-15T21:37:31.646Z,101867.69
2023-02-15T21:40:07.368Z,101865.03
2023-02-15T21:42:58.218Z,101861.56
2023-02-15T21:45:45.000Z,101863.31
2023-02-15T21:48:14.209Z,101860.69
2023-02-15T21:51:01.974Z,101855.38
2023-02-15T21:53:35.122Z,101851.00
2023-02-15T21:56:08.723Z,101844.81
2023-02-15T21:58:39.373Z,101849.22
2023-02-15T22:01:17.725Z,101844.84
2023-02-15T22:03:47.728Z,101843.94
2023-02-15T22:06:17.264Z,101837.78
2023-02-15T22:08:48.026Z,101833.34
2023-02-15T22:11:20.834Z,101837.78
2023-02-15T22:13:52.076Z,101830.75
2023-02-15T22:16:23.908Z,101821.03
2023-02-15T22:18:53.197Z,101836.03
2023-02-15T22:21:22.505Z,101836.91
2023-02-15T22:23:51.673Z,101825.41
2023-02-15T22:26:24.544Z,101824.56
2023-02-15T22:28:55.339Z,101824.56
2023-02-15T22:31:25.327Z,101828.09
2023-02-15T22:33:55.386Z,101824.56
2023-02-15T22:36:26.990Z,101825.41
2023-02-15T22:38:57.488Z,101818.38
2023-02-15T22:41:30.215Z,101817.53
2023-02-15T22:44:00.881Z,101814.91
2023-02-15T22:46:30.682Z,101815.72
2023-02-15T22:48:59.709Z,101822.78
2023-02-15T22:51:30.678Z,101813.94
2023-02-15T22:53:59.988Z,101810.44
2023-02-15T22:56:38.040Z,101799.84
2023-02-15T22:59:15.162Z,101803.44
2023-02-15T23:01:44.923Z,101797.25
2023-02-15T23:04:18.389Z,101796.34
2023-02-15T23:06:48.616Z,101796.34
2023-02-15T23:09:17.873Z,101793.72
2023-02-15T23:11:47.371Z,101782.25
2023-02-15T23:14:27.550Z,101783.16
2023-02-15T23:16:57.412Z,101782.25
2023-02-15T23:19:26.741Z,101779.59
2023-02-15T23:21:56.180Z,101774.28
2023-02-15T23:24:27.823Z,101775.16
2023-02-15T23:27:18.811Z,101766.34
2023-02-15T23:29:49.344Z,101773.41
2023-02-15T23:32:20.481Z,101774.28
2023-02-15T23:34:49.691Z,101773.44
2023-02-15T23:37:19.212Z,101769.03
2023-02-15T23:40:06.048Z,101763.72
2023-02-15T23:42:37.184Z,101765.44
2023-02-15T23:45:19.578Z,101762.81
2023-02-15T23:48:07.606Z,101761.09
2023-02-15T23:50:36.890Z,101757.56
2023-02-15T23:53:06.357Z,101759.28
2023-02-15T23:55:37.539Z,101755.75
2023-02-15T23:58:08.500Z,101747.81
